Time;durP1;ratioP1;P1;durP2;ratioP2;P2;SDS_P1;SDS_P2;PMS_P1;PMS_P2;Temp;Humidity;BMP_temperature;BMP_pressure;BME280_temperature;BME280_humidity;BME280_pressure;Samples;Min_cycle;Max_cycle;Signal;HPM_P1;HPM_P2
2023/04/16 00:01:42;;;;;;;6.90;2.60;;;;;;;;;;4897695;29;20048;-45
2023/04/16 00:04:17;;;;;;;6.40;2.35;;;;;;;;;;4905152;29;20040;-47
2023/04/16 00:06:45;;;;;;;6.23;2.60;;;;;;;;;;4889347;29;20040;-45
2023/04/16 00:09:13;;;;;;;7.30;2.47;;;;;;;;;;4892971;29;20139;-46
2023/04/16 00:11:41;;;;;;;8.25;2.50;;;;;;;;;;4896295;29;20497;-45
2023/04/16 00:14:09;;;;;;;6.57;2.33;;;;;;;;;;4900603;29;20032;-45
2023/04/16 00:16:37;;;;;;;7.55;2.33;;;;;;;;;;4893389;29;20083;-45
2023/04/16 00:19:04;;;;;;;7.07;2.63;;;;;;;;;;4882188;29;20677;-44
2023/04/16 00:21:34;;;;;;;6.70;2.55;;;;;;;;;;4908590;29;20044;-44
2023/04/16 00:24:01;;;;;;;6.85;3.03;;;;;;;;;;4882034;29;20044;-45
2023/04/16 00:26:29;;;;;;;9.30;3.10;;;;;;;;;;4896092;29;20047;-44
2023/04/16 00:28:57;;;;;;;6.57;2.80;;;;;;;;;;4895425;29;20098;-44
2023/04/16 00:31:28;;;;;;;7.03;2.60;;;;;;;;;;4902083;29;20044;-45
2023/04/16 00:33:56;;;;;;;7.18;2.92;;;;;;;;;;4903963;29;20048;-46
2023/04/16 00:36:24;;;;;;;7.55;2.60;;;;;;;;;;4890488;29;20709;-43
2023/04/16 00:38:53;;;;;;;6.40;2.63;;;;;;;;;;4901966;29;20040;-44
2023/04/16 00:41:21;;;;;;;7.30;2.83;;;;;;;;;;4888692;29;20056;-46
2023/04/16 00:43:49;;;;;;;6.57;2.43;;;;;;;;;;4903536;29;20044;-45
2023/04/16 00:46:18;;;;;;;6.88;2.63;;;;;;;;;;4882864;29;20051;-44
2023/04/16 00:48:46;;;;;;;6.63;2.63;;;;;;;;;;4903712;29;20050;-44
2023/04/16 00:51:15;;;;;;;7.50;2.33;;;;;;;;;;4910140;29;20866;-46
2023/04/16 00:53:43;;;;;;;8.25;2.92;;;;;;;;;;4883788;29;20057;-46
2023/04/16 00:56:13;;;;;;;7.17;2.67;;;;;;;;;;4893700;29;20066;-46
2023/04/16 00:58:41;;;;;;;7.68;3.20;;;;;;;;;;4903435;29;20044;-45
2023/04/16 01:01:09;;;;;;;6.60;2.80;;;;;;;;;;4903880;29;20074;-47
2023/04/16 01:03:38;;;;;;;6.80;2.63;;;;;;;;;;4895853;29;20055;-44
2023/04/16 01:06:07;;;;;;;7.10;2.70;;;;;;;;;;4883674;29;20052;-45
2023/04/16 01:08:35;;;;;;;7.97;2.73;;;;;;;;;;4903733;29;20071;-45
2023/04/16 01:11:03;;;;;;;7.82;2.90;;;;;;;;;;4890135;29;20086;-46
2023/04/16 01:13:32;;;;;;;7.38;2.95;;;;;;;;;;4909290;29;20079;-45
2023/04/16 01:16:00;;;;;;;7.10;3.03;;;;;;;;;;4892319;29;20052;-45
2023/04/16 01:18:28;;;;;;;8.27;3.10;;;;;;;;;;4902605;29;20040;-45
2023/04/16 01:20:58;;;;;;;7.47;3.20;;;;;;;;;;4909324;29;20123;-46
2023/04/16 01:23:25;;;;;;;9.10;3.10;;;;;;;;;;4853891;28;20055;-45
2023/04/16 01:25:53;;;;;;;8.13;3.25;;;;;;;;;;4908039;29;20479;-45
2023/04/16 01:28:21;;;;;;;6.40;2.53;;;;;;;;;;4899736;29;20164;-47
2023/04/16 01:30:48;;;;;;;8.48;3.40;;;;;;;;;;4880594;29;20119;-45
2023/04/16 01:33:17;;;;;;;7.83;2.93;;;;;;;;;;4905887;29;20043;-45
2023/04/16 01:35:45;;;;;;;7.50;3.17;;;;;;;;;;4903032;29;20044;-45
2023/04/16 01:38:14;;;;;;;9.52;3.35;;;;;;;;;;4908823;29;20127;-46
2023/04/16 01:40:42;;;;;;;9.30;3.10;;;;;;;;;;4903778;29;20043;-45
2023/04/16 01:43:10;;;;;;;7.40;3.22;;;;;;;;;;4906246;29;20122;-46
2023/04/16 01:45:37;;;;;;;10.37;3.00;;;;;;;;;;4891458;29;20071;-44
2023/04/16 01:48:05;;;;;;;8.88;3.10;;;;;;;;;;4899424;29;20048;-47
2023/04/16 01:50:33;;;;;;;6.70;2.47;;;;;;;;;;4906335;29;20075;-46
2023/04/16 01:53:03;;;;;;;7.05;2.85;;;;;;;;;;4897468;29;20767;-46
2023/04/16 01:55:33;;;;;;;7.65;2.90;;;;;;;;;;4895620;29;20051;-45
2023/04/16 01:58:01;;;;;;;10.20;3.03;;;;;;;;;;4890053;29;20071;-46
2023/04/16 02:00:29;;;;;;;7.30;2.63;;;;;;;;;;4893396;29;20212;-45
2023/04/16 02:02:56;;;;;;;9.52;2.63;;;;;;;;;;4884465;29;20039;-45
2023/04/16 02:05:24;;;;;;;6.68;2.80;;;;;;;;;;4887853;29;20572;-47
2023/04/16 02:07:52;;;;;;;10.07;3.22;;;;;;;;;;4901571;29;20072;-45
2023/04/16 02:10:20;;;;;;;7.83;3.27;;;;;;;;;;4892877;29;20048;-46
2023/04/16 02:12:50;;;;;;;8.63;3.22;;;;;;;;;;4882289;29;20139;-46
2023/04/16 02:15:18;;;;;;;7.57;2.83;;;;;;;;;;4892689;29;20482;-46
2023/04/16 02:17:47;;;;;;;8.93;3.00;;;;;;;;;;4893213;29;20103;-45
2023/04/16 02:20:16;;;;;;;8.02;2.60;;;;;;;;;;4896522;29;20040;-45
2023/04/16 02:22:44;;;;;;;6.53;2.90;;;;;;;;;;4885568;29;20048;-45
2023/04/16 02:25:13;;;;;;;7.65;2.80;;;;;;;;;;4900980;29;20234;-45
2023/04/16 02:27:41;;;;;;;9.18;3.40;;;;;;;;;;4892396;29;20040;-47
2023/04/16 02:30:11;;;;;;;10.35;3.88;;;;;;;;;;4902133;29;20099;-45
2023/04/16 02:32:38;;;;;;;10.80;3.75;;;;;;;;;;4903882;29;20095;-48
2023/04/16 02:35:06;;;;;;;7.10;2.97;;;;;;;;;;4914242;29;20131;-46
2023/04/16 02:37:34;;;;;;;7.65;2.90;;;;;;;;;;4883734;29;20100;-44
2023/04/16 02:40:02;;;;;;;11.48;3.33;;;;;;;;;;4883939;29;21842;-46
2023/04/16 02:42:30;;;;;;;7.47;2.65;;;;;;;;;;4913106;29;20051;-46
2023/04/16 02:44:57;;;;;;;8.27;2.90;;;;;;;;;;4900293;29;20067;-44
2023/04/16 02:47:26;;;;;;;13.97;3.00;;;;;;;;;;4887386;29;20118;-46
2023/04/16 02:49:54;;;;;;;7.97;3.20;;;;;;;;;;4899408;29;20035;-45
2023/04/16 02:52:22;;;;;;;8.02;3.05;;;;;;;;;;4910016;29;20103;-45
2023/04/16 02:54:49;;;;;;;12.13;3.00;;;;;;;;;;4896128;29;20094;-45
2023/04/16 02:57:17;;;;;;;8.43;3.47;;;;;;;;;;4894810;29;20063;-45
2023/04/16 02:59:45;;;;;;;6.93;2.83;;;;;;;;;;4907032;29;20104;-46
2023/04/16 03:02:12;;;;;;;7.43;3.20;;;;;;;;;;4896841;29;20075;-45
2023/04/16 03:04:42;;;;;;;8.45;4.05;;;;;;;;;;4888311;29;20053;-45
2023/04/16 03:07:11;;;;;;;8.05;3.38;;;;;;;;;;4902476;29;20049;-45
2023/04/16 03:09:39;;;;;;;8.25;3.47;;;;;;;;;;4889481;29;20128;-47
2023/04/16 03:12:07;;;;;;;7.53;3.23;;;;;;;;;;4869676;29;20249;-47
2023/04/16 03:14:35;;;;;;;7.65;3.45;;;;;;;;;;4904327;29;20046;-47
2023/04/16 03:17:02;;;;;;;8.50;3.33;;;;;;;;;;4904401;29;20068;-46
2023/04/16 03:19:30;;;;;;;8.05;3.03;;;;;;;;;;4882122;29;20070;-45
2023/04/16 03:21:59;;;;;;;8.27;2.95;;;;;;;;;;4901119;29;20502;-47
2023/04/16 03:24:28;;;;;;;7.23;3.00;;;;;;;;;;4890358;29;20901;-46
2023/04/16 03:26:57;;;;;;;8.20;2.60;;;;;;;;;;4909110;29;20142;-47
2023/04/16 03:29:25;;;;;;;8.32;3.00;;;;;;;;;;4896642;29;20293;-46
2023/04/16 03:31:53;;;;;;;6.47;2.85;;;;;;;;;;4895946;29;20040;-44
2023/04/16 03:34:20;;;;;;;6.82;3.00;;;;;;;;;;4889999;29;20131;-44
2023/04/16 03:36:52;;;;;;;8.27;3.00;;;;;;;;;;4909783;29;20055;-46
2023/04/16 03:39:21;;;;;;;8.05;3.22;;;;;;;;;;4888268;29;20722;-46
2023/04/16 03:41:49;;;;;;;7.45;2.75;;;;;;;;;;4902552;29;20040;-44
2023/04/16 03:44:16;;;;;;;8.57;2.75;;;;;;;;;;4868411;29;20126;-44
2023/04/16 03:46:44;;;;;;;7.70;3.38;;;;;;;;;;4899785;29;20063;-44
2023/04/16 03:49:12;;;;;;;8.17;3.03;;;;;;;;;;4892425;29;20045;-46
2023/04/16 03:51:40;;;;;;;8.32;3.10;;;;;;;;;;4885239;29;20767;-45
2023/04/16 03:54:07;;;;;;;7.57;3.08;;;;;;;;;;4886356;29;20043;-44
2023/04/16 03:56:36;;;;;;;8.48;3.10;;;;;;;;;;4899854;29;20051;-44
2023/04/16 03:59:04;;;;;;;9.90;3.50;;;;;;;;;;4912052;29;20032;-44
2023/04/16 04:01:32;;;;;;;7.97;2.67;;;;;;;;;;4885554;29;20119;-44
2023/04/16 04:04:00;;;;;;;8.07;2.92;;;;;;;;;;4906358;29;20043;-44
2023/04/16 04:06:28;;;;;;;10.63;3.53;;;;;;;;;;4904729;29;20095;-45
2023/04/16 04:08:56;;;;;;;7.68;3.45;;;;;;;;;;4905373;29;20047;-44
2023/04/16 04:11:23;;;;;;;9.40;3.33;;;;;;;;;;4902519;29;20064;-44
2023/04/16 04:13:52;;;;;;;9.43;3.40;;;;;;;;;;4915565;29;20043;-45
2023/04/16 04:16:20;;;;;;;7.70;3.05;;;;;;;;;;4876754;29;20422;-45
2023/04/16 04:18:48;;;;;;;9.25;3.30;;;;;;;;;;4897356;29;20078;-44
2023/04/16 04:21:16;;;;;;;11.25;3.50;;;;;;;;;;4888055;29;20134;-45
2023/04/16 04:23:44;;;;;;;9.43;3.38;;;;;;;;;;4915497;29;20040;-45
2023/04/16 04:26:12;;;;;;;11.07;3.27;;;;;;;;;;4896249;29;20040;-45
2023/04/16 04:28:41;;;;;;;9.13;3.28;;;;;;;;;;4901325;29;20047;-45
2023/04/16 04:31:09;;;;;;;7.63;3.30;;;;;;;;;;4889617;29;20123;-44
2023/04/16 04:33:37;;;;;;;7.47;3.25;;;;;;;;;;4907597;29;20042;-45
2023/04/16 04:36:06;;;;;;;10.13;3.38;;;;;;;;;;4900224;29;20510;-46
2023/04/16 04:38:33;;;;;;;8.37;3.67;;;;;;;;;;4919699;29;20168;-48
2023/04/16 04:41:01;;;;;;;8.25;3.13;;;;;;;;;;4888260;29;20127;-46
2023/04/16 04:43:29;;;;;;;7.38;3.10;;;;;;;;;;4908334;29;20135;-50
2023/04/16 04:45:56;;;;;;;7.35;3.40;;;;;;;;;;4901691;29;20131;-44
2023/04/16 04:48:26;;;;;;;8.18;3.53;;;;;;;;;;4888611;29;20052;-43
2023/04/16 04:50:54;;;;;;;7.17;3.50;;;;;;;;;;4893019;29;20107;-44
2023/04/16 04:53:23;;;;;;;7.93;3.38;;;;;;;;;;4906823;29;20044;-45
2023/04/16 04:55:51;;;;;;;10.65;3.70;;;;;;;;;;4899761;29;20445;-45
2023/04/16 04:58:23;;;;;;;7.65;3.42;;;;;;;;;;4887194;29;20125;-45
2023/04/16 05:00:51;;;;;;;7.93;3.20;;;;;;;;;;4889383;29;20116;-44
2023/04/16 05:03:23;;;;;;;7.87;3.53;;;;;;;;;;4894472;29;20114;-45
2023/04/16 05:05:53;;;;;;;7.47;3.47;;;;;;;;;;4886675;29;20050;-46
2023/04/16 05:08:21;;;;;;;8.07;3.40;;;;;;;;;;4893105;29;20075;-45
2023/04/16 05:10:49;;;;;;;10.10;3.63;;;;;;;;;;4919155;29;20047;-46
2023/04/16 05:13:16;;;;;;;7.72;3.13;;;;;;;;;;4889206;29;20078;-44
2023/04/16 05:15:44;;;;;;;9.07;3.60;;;;;;;;;;4895426;29;20051;-46
2023/04/16 05:18:12;;;;;;;8.77;3.28;;;;;;;;;;4903121;29;20217;-47
2023/04/16 05:20:40;;;;;;;6.85;2.70;;;;;;;;;;4896251;29;20304;-44
2023/04/16 05:23:09;;;;;;;7.13;3.00;;;;;;;;;;4914762;29;20063;-45
2023/04/16 05:25:36;;;;;;;9.60;2.75;;;;;;;;;;4893863;29;20155;-45
2023/04/16 05:28:04;;;;;;;9.47;3.17;;;;;;;;;;4911108;29;20052;-45
2023/04/16 05:30:32;;;;;;;7.43;2.97;;;;;;;;;;4880059;29;20127;-44
2023/04/16 05:32:59;;;;;;;7.25;2.83;;;;;;;;;;4886165;29;20036;-44
2023/04/16 05:35:27;;;;;;;9.20;3.13;;;;;;;;;;4897636;29;20048;-46
2023/04/16 05:37:55;;;;;;;7.97;3.17;;;;;;;;;;4899255;29;20067;-48
2023/04/16 05:40:24;;;;;;;8.53;3.40;;;;;;;;;;4880475;29;20076;-46
2023/04/16 05:42:51;;;;;;;6.50;2.65;;;;;;;;;;4900474;29;20514;-47
2023/04/16 05:45:26;;;;;;;8.80;3.80;;;;;;;;;;4909045;29;20071;-45
2023/04/16 05:47:55;;;;;;;9.55;3.92;;;;;;;;;;4910623;29;20055;-46
2023/04/16 05:50:23;;;;;;;8.07;3.13;;;;;;;;;;4880447;29;20040;-46
2023/04/16 05:52:50;;;;;;;7.80;3.20;;;;;;;;;;4906884;29;20722;-47
2023/04/16 05:55:18;;;;;;;7.75;3.00;;;;;;;;;;4892836;29;20466;-47
2023/04/16 05:57:47;;;;;;;11.68;3.90;;;;;;;;;;4909070;29;20040;-44
2023/04/16 06:00:15;;;;;;;7.38;3.30;;;;;;;;;;4893354;29;20035;-44
2023/04/16 06:02:42;;;;;;;10.25;3.95;;;;;;;;;;4906193;29;20044;-44
2023/04/16 06:05:10;;;;;;;8.40;3.47;;;;;;;;;;4891033;29;20103;-44
2023/04/16 06:07:38;;;;;;;7.05;3.03;;;;;;;;;;4899238;29;20519;-44
2023/04/16 06:10:06;;;;;;;9.30;3.30;;;;;;;;;;4881536;29;20044;-44
2023/04/16 06:12:34;;;;;;;8.32;3.63;;;;;;;;;;4894756;29;20072;-46
2023/04/16 06:15:03;;;;;;;7.85;3.20;;;;;;;;;;4891799;29;20445;-46
2023/04/16 06:17:31;;;;;;;12.27;3.27;;;;;;;;;;4907857;29;20044;-45
2023/04/16 06:19:59;;;;;;;7.40;3.20;;;;;;;;;;4884277;29;20422;-45
2023/04/16 06:22:26;;;;;;;9.48;3.20;;;;;;;;;;4899654;29;20143;-44
2023/04/16 06:24:54;;;;;;;6.72;2.10;;;;;;;;;;4886270;29;20044;-45
2023/04/16 06:27:22;;;;;;;8.18;2.42;;;;;;;;;;4893637;29;20071;-44
2023/04/16 06:29:50;;;;;;;7.90;1.63;;;;;;;;;;4878979;29;20050;-45
2023/04/16 06:32:19;;;;;;;8.25;2.03;;;;;;;;;;4886164;29;20043;-45
2023/04/16 06:34:46;;;;;;;5.50;1.70;;;;;;;;;;4883478;29;20520;-45
2023/04/16 06:37:15;;;;;;;5.30;1.70;;;;;;;;;;4905871;29;20119;-46
2023/04/16 06:39:43;;;;;;;11.05;2.20;;;;;;;;;;4899225;29;20043;-45
2023/04/16 06:42:11;;;;;;;8.13;2.37;;;;;;;;;;4895437;29;20047;-44
2023/04/16 06:44:39;;;;;;;7.07;1.52;;;;;;;;;;4899135;29;20052;-45
2023/04/16 06:47:06;;;;;;;7.03;1.65;;;;;;;;;;4884677;29;20155;-46
2023/04/16 06:49:36;;;;;;;6.15;1.70;;;;;;;;;;4898464;29;20048;-45
2023/04/16 06:52:03;;;;;;;6.35;1.90;;;;;;;;;;4883920;29;20067;-47
2023/04/16 06:54:32;;;;;;;7.17;1.90;;;;;;;;;;4909143;29;20444;-45
2023/04/16 06:57:00;;;;;;;6.22;2.00;;;;;;;;;;4895521;29;20894;-45
2023/04/16 06:59:27;;;;;;;5.10;1.85;;;;;;;;;;4900703;29;20075;-46
2023/04/16 07:01:55;;;;;;;7.15;1.90;;;;;;;;;;4879879;29;20262;-45
2023/04/16 07:04:23;;;;;;;8.40;2.08;;;;;;;;;;4902492;29;20091;-47
2023/04/16 07:06:52;;;;;;;7.20;1.90;;;;;;;;;;4885697;29;20399;-45
2023/04/16 07:09:20;;;;;;;6.20;2.00;;;;;;;;;;4890187;29;20054;-46
2023/04/16 07:11:48;;;;;;;5.18;1.83;;;;;;;;;;4897057;29;20541;-45
2023/04/16 07:14:16;;;;;;;5.88;1.58;;;;;;;;;;4888332;29;20052;-48
2023/04/16 07:16:43;;;;;;;6.03;2.00;;;;;;;;;;4900256;29;20472;-45
2023/04/16 07:19:11;;;;;;;6.60;2.10;;;;;;;;;;4898987;29;20467;-45
2023/04/16 07:21:40;;;;;;;5.05;1.95;;;;;;;;;;4890124;29;20132;-45
2023/04/16 07:24:09;;;;;;;8.20;2.17;;;;;;;;;;4897716;29;20406;-45
2023/04/16 07:26:37;;;;;;;6.85;2.00;;;;;;;;;;4883115;29;20655;-46
2023/04/16 07:29:05;;;;;;;7.85;2.08;;;;;;;;;;4890873;29;20040;-44
2023/04/16 07:31:34;;;;;;;6.17;1.53;;;;;;;;;;4892308;29;20055;-45
2023/04/16 07:34:02;;;;;;;6.90;1.67;;;;;;;;;;4912560;29;20079;-44
2023/04/16 07:36:30;;;;;;;4.32;1.30;;;;;;;;;;4897484;29;20042;-45
2023/04/16 07:38:59;;;;;;;7.25;1.63;;;;;;;;;;4889843;29;20044;-45
2023/04/16 07:41:28;;;;;;;8.45;1.98;;;;;;;;;;4908348;29;20108;-47
2023/04/16 07:43:56;;;;;;;6.60;1.60;;;;;;;;;;4888125;29;20055;-44
2023/04/16 07:46:24;;;;;;;10.25;2.05;;;;;;;;;;4884790;29;20066;-46
2023/04/16 07:48:59;;;;;;;8.05;2.03;;;;;;;;;;4898320;29;20044;-44
2023/04/16 07:51:27;;;;;;;9.70;1.90;;;;;;;;;;4906565;29;20071;-45
2023/04/16 07:53:55;;;;;;;5.20;1.77;;;;;;;;;;4889588;29;20400;-44
2023/04/16 07:56:22;;;;;;;5.57;1.40;;;;;;;;;;4904573;29;20489;-44
2023/04/16 07:58:51;;;;;;;8.32;1.80;;;;;;;;;;4886539;29;20071;-44
2023/04/16 08:01:19;;;;;;;7.13;1.83;;;;;;;;;;4899291;29;20119;-44
2023/04/16 08:03:47;;;;;;;7.28;1.90;;;;;;;;;;4887480;29;20135;-44
2023/04/16 08:06:17;;;;;;;5.45;1.45;;;;;;;;;;4888361;29;20036;-47
2023/04/16 08:08:44;;;;;;;8.03;1.50;;;;;;;;;;4898267;29;20561;-48
2023/04/16 08:11:12;;;;;;;7.35;1.45;;;;;;;;;;4905550;29;20463;-45
2023/04/16 08:13:40;;;;;;;5.47;1.70;;;;;;;;;;4890496;29;20074;-47
2023/04/16 08:16:09;;;;;;;5.63;1.55;;;;;;;;;;4916274;29;20119;-44
2023/04/16 08:18:37;;;;;;;6.28;1.70;;;;;;;;;;4872415;29;20044;-46
2023/04/16 08:21:05;;;;;;;5.83;1.57;;;;;;;;;;4899091;29;20142;-45
2023/04/16 08:23:32;;;;;;;9.73;2.20;;;;;;;;;;4909291;29;20131;-44
2023/04/16 08:26:00;;;;;;;6.10;1.58;;;;;;;;;;4875382;29;20127;-48
2023/04/16 08:28:28;;;;;;;7.40;1.67;;;;;;;;;;4891971;29;20122;-45
2023/04/16 08:30:59;;;;;;;6.97;1.17;;;;;;;;;;4883236;29;20295;-45
2023/04/16 08:33:29;;;;;;;5.80;1.13;;;;;;;;;;4911533;29;20491;-45
2023/04/16 08:35:56;;;;;;;5.28;1.30;;;;;;;;;;4884566;29;20665;-44
2023/04/16 08:38:25;;;;;;;6.03;1.45;;;;;;;;;;4907143;29;20135;-43
2023/04/16 08:40:53;;;;;;;5.65;1.50;;;;;;;;;;4876274;29;20119;-45
2023/04/16 08:43:23;;;;;;;6.55;1.42;;;;;;;;;;4875798;29;20063;-46
2023/04/16 08:45:55;;;;;;;6.77;1.17;;;;;;;;;;4897994;29;20073;-44
2023/04/16 08:48:23;;;;;;;8.38;1.30;;;;;;;;;;4897096;29;20042;-50
2023/04/16 08:50:53;;;;;;;5.03;1.23;;;;;;;;;;4906540;29;20115;-45
2023/04/16 08:53:25;;;;;;;4.75;1.30;;;;;;;;;;4895561;29;20485;-46
2023/04/16 08:55:55;;;;;;;8.73;2.10;;;;;;;;;;4897949;29;20122;-45
2023/04/16 08:58:23;;;;;;;6.90;1.50;;;;;;;;;;4886986;29;20128;-46
2023/04/16 09:00:51;;;;;;;6.95;1.27;;;;;;;;;;4895331;29;20526;-46
2023/04/16 09:03:21;;;;;;;9.15;1.67;;;;;;;;;;4887879;29;20096;-47
2023/04/16 09:05:49;;;;;;;8.95;1.42;;;;;;;;;;4898860;29;20054;-46
2023/04/16 09:08:21;;;;;;;7.38;1.20;;;;;;;;;;4875655;29;20123;-45
2023/04/16 09:10:50;;;;;;;4.37;1.17;;;;;;;;;;4909467;29;20135;-45
2023/04/16 09:13:19;;;;;;;6.60;0.70;;;;;;;;;;4889772;29;20040;-44
2023/04/16 09:15:47;;;;;;;3.80;1.00;;;;;;;;;;4900609;29;20052;-45
2023/04/16 09:18:15;;;;;;;4.82;1.00;;;;;;;;;;4901519;29;20469;-46
2023/04/16 09:20:42;;;;;;;6.78;1.40;;;;;;;;;;4904517;29;20513;-44
2023/04/16 09:23:10;;;;;;;5.37;0.77;;;;;;;;;;4883874;29;20048;-46
2023/04/16 09:25:39;;;;;;;5.03;1.17;;;;;;;;;;4894952;29;20123;-44
2023/04/16 09:28:07;;;;;;;5.38;1.10;;;;;;;;;;4891557;29;20091;-45
2023/04/16 09:30:36;;;;;;;5.35;1.60;;;;;;;;;;4907733;29;20048;-46
2023/04/16 09:33:15;;;;;;;5.82;1.17;;;;;;;;;;4889096;29;20071;-44
2023/04/16 09:35:47;;;;;;;4.47;1.27;;;;;;;;;;4905536;29;20118;-45
2023/04/16 09:38:15;;;;;;;5.05;1.15;;;;;;;;;;4909204;29;20126;-46
2023/04/16 09:40:46;;;;;;;5.82;1.48;;;;;;;;;;4897867;29;20039;-44
2023/04/16 09:43:15;;;;;;;4.18;0.80;;;;;;;;;;4915861;29;20043;-48
2023/04/16 09:45:50;;;;;;;5.60;1.35;;;;;;;;;;4894909;29;20036;-45
2023/04/16 09:48:28;;;;;;;6.07;1.20;;;;;;;;;;4907332;29;20039;-50
2023/04/16 09:50:56;;;;;;;4.80;1.00;;;;;;;;;;4890650;29;20051;-46
2023/04/16 09:53:25;;;;;;;7.93;0.88;;;;;;;;;;4898329;29;20043;-46
2023/04/16 09:55:57;;;;;;;5.18;0.98;;;;;;;;;;4896352;29;20051;-46
2023/04/16 09:58:25;;;;;;;4.72;1.20;;;;;;;;;;4893216;29;20043;-46
2023/04/16 10:00:55;;;;;;;5.70;1.20;;;;;;;;;;4881583;29;20054;-46
2023/04/16 10:03:29;;;;;;;7.15;0.85;;;;;;;;;;4894514;29;20044;-45
2023/04/16 10:05:59;;;;;;;5.40;1.20;;;;;;;;;;4901039;29;20103;-46
2023/04/16 10:08:27;;;;;;;6.18;1.40;;;;;;;;;;4890290;29;20123;-45
2023/04/16 10:10:57;;;;;;;5.35;0.90;;;;;;;;;;4898552;29;20075;-47
2023/04/16 10:13:26;;;;;;;5.50;0.87;;;;;;;;;;4895747;29;20398;-46
2023/04/16 10:15:55;;;;;;;3.80;1.08;;;;;;;;;;4883909;29;20045;-46
2023/04/16 10:18:23;;;;;;;5.32;0.63;;;;;;;;;;4893893;29;20644;-45
2023/04/16 10:20:54;;;;;;;4.75;0.70;;;;;;;;;;4895842;29;20087;-48
2023/04/16 10:23:22;;;;;;;4.10;0.95;;;;;;;;;;4913583;29;20190;-45
2023/04/16 10:25:50;;;;;;;3.80;0.80;;;;;;;;;;4880404;29;20039;-44
2023/04/16 10:28:19;;;;;;;3.58;0.68;;;;;;;;;;4898913;29;20131;-47
2023/04/16 10:30:55;;;;;;;3.75;0.77;;;;;;;;;;4890694;29;20083;-45
2023/04/16 10:33:25;;;;;;;4.57;1.33;;;;;;;;;;4900484;29;20088;-44
2023/04/16 10:35:53;;;;;;;4.38;0.80;;;;;;;;;;4886885;29;20138;-46
2023/04/16 10:38:34;;;;;;;5.40;0.90;;;;;;;;;;4912378;29;20059;-44
2023/04/16 10:41:02;;;;;;;4.57;0.85;;;;;;;;;;4880270;29;20044;-47
2023/04/16 10:43:32;;;;;;;3.45;0.73;;;;;;;;;;4902443;29;20070;-45
2023/04/16 10:46:15;;;;;;;4.55;0.90;;;;;;;;;;4911186;29;20032;-46
2023/04/16 10:48:43;;;;;;;4.95;0.77;;;;;;;;;;4880783;29;20048;-46
2023/04/16 10:51:24;;;;;;;4.20;0.60;;;;;;;;;;4903601;29;20418;-44
2023/04/16 10:53:53;;;;;;;6.72;0.75;;;;;;;;;;4875763;29;20079;-45
2023/04/16 10:56:25;;;;;;;4.75;0.60;;;;;;;;;;4897385;28;20108;-49
2023/04/16 10:58:55;;;;;;;4.70;0.82;;;;;;;;;;4895386;29;20151;-45
2023/04/16 11:01:31;;;;;;;3.08;0.50;;;;;;;;;;4897604;29;20096;-45
2023/04/16 11:04:19;;;;;;;6.30;1.13;;;;;;;;;;4897265;29;20573;-46
2023/04/16 11:07:00;;;;;;;11.05;2.65;;;;;;;;;;4890520;29;20044;-45
2023/04/16 11:09:45;;;;;;;5.30;0.93;;;;;;;;;;4898989;29;20039;-48
2023/04/16 11:12:15;;;;;;;5.82;1.08;;;;;;;;;;4876840;29;20055;-46
2023/04/16 11:14:46;;;;;;;3.13;0.60;;;;;;;;;;4904112;29;20048;-45
2023/04/16 11:17:15;;;;;;;5.50;0.80;;;;;;;;;;4905368;29;20784;-46
2023/04/16 11:19:42;;;;;;;6.25;0.60;;;;;;;;;;4892858;29;20633;-44
2023/04/16 11:22:13;;;;;;;3.00;0.60;;;;;;;;;;4901970;29;20062;-46
2023/04/16 11:24:42;;;;;;;4.40;0.93;;;;;;;;;;4886929;29;20075;-45
2023/04/16 11:27:11;;;;;;;3.80;0.70;;;;;;;;;;4889486;29;20039;-45
2023/04/16 11:29:39;;;;;;;6.63;1.63;;;;;;;;;;4880811;29;20060;-45
2023/04/16 11:32:08;;;;;;;5.25;0.50;;;;;;;;;;4908238;29;20051;-45
2023/04/16 11:34:43;;;;;;;3.25;0.55;;;;;;;;;;4887209;29;20529;-48
2023/04/16 11:37:12;;;;;;;3.88;0.80;;;;;;;;;;4903399;29;20135;-48
2023/04/16 11:39:50;;;;;;;6.43;0.80;;;;;;;;;;4907437;29;20031;-45
2023/04/16 11:42:22;;;;;;;3.47;0.80;;;;;;;;;;4885192;29;20044;-48
2023/04/16 11:44:54;;;;;;;3.60;0.95;;;;;;;;;;4908155;29;20679;-45
2023/04/16 11:47:24;;;;;;;4.68;0.82;;;;;;;;;;4885820;29;20146;-47
2023/04/16 11:49:51;;;;;;;3.58;0.90;;;;;;;;;;4908161;29;20507;-44
2023/04/16 11:52:27;;;;;;;3.15;0.65;;;;;;;;;;4883823;29;20074;-44
2023/04/16 11:54:55;;;;;;;4.17;0.90;;;;;;;;;;4880401;29;20048;-47
2023/04/16 11:57:26;;;;;;;3.95;0.75;;;;;;;;;;4897292;29;20071;-45
2023/04/16 11:59:54;;;;;;;5.88;0.80;;;;;;;;;;4902977;29;20131;-46
2023/04/16 12:02:38;;;;;;;3.97;0.75;;;;;;;;;;4897277;29;20051;-47
2023/04/16 12:05:07;;;;;;;6.03;0.65;;;;;;;;;;4887676;29;20389;-46
2023/04/16 12:07:44;;;;;;;3.17;0.43;;;;;;;;;;4902777;29;20044;-44
2023/04/16 12:10:12;;;;;;;3.78;0.68;;;;;;;;;;4875660;29;20103;-46
2023/04/16 12:12:39;;;;;;;3.78;0.63;;;;;;;;;;4906153;29;20051;-47
2023/04/16 12:15:07;;;;;;;5.40;1.20;;;;;;;;;;4879083;29;20506;-45
2023/04/16 12:17:36;;;;;;;2.90;0.57;;;;;;;;;;4907007;29;20870;-44
2023/04/16 12:20:09;;;;;;;4.83;0.60;;;;;;;;;;4886198;29;20075;-45
2023/04/16 12:22:38;;;;;;;4.20;0.52;;;;;;;;;;4886621;29;20176;-47
2023/04/16 12:25:07;;;;;;;3.03;0.50;;;;;;;;;;4890396;29;20032;-44
2023/04/16 12:27:42;;;;;;;2.97;0.60;;;;;;;;;;4907354;29;20059;-48
2023/04/16 12:30:10;;;;;;;5.15;0.60;;;;;;;;;;4907171;29;20123;-45
2023/04/16 12:32:38;;;;;;;3.97;0.70;;;;;;;;;;4887228;29;20553;-45
2023/04/16 12:35:08;;;;;;;4.15;0.70;;;;;;;;;;4897392;29;20499;-44
2023/04/16 12:37:36;;;;;;;4.93;0.60;;;;;;;;;;4884039;29;20309;-46
2023/04/16 12:40:05;;;;;;;3.85;0.85;;;;;;;;;;4899911;29;20152;-44
2023/04/16 12:42:34;;;;;;;2.72;0.60;;;;;;;;;;4891128;29;20655;-46
2023/04/16 12:45:03;;;;;;;4.73;0.60;;;;;;;;;;4909134;29;20075;-48
2023/04/16 12:47:30;;;;;;;2.53;0.63;;;;;;;;;;4883673;29;20047;-47
2023/04/16 12:49:59;;;;;;;2.53;0.50;;;;;;;;;;4904678;29;20044;-46
2023/04/16 12:52:28;;;;;;;2.40;0.50;;;;;;;;;;4890615;29;20130;-45
2023/04/16 12:54:55;;;;;;;5.22;0.70;;;;;;;;;;4906587;29;20055;-45
2023/04/16 12:57:27;;;;;;;4.30;0.50;;;;;;;;;;4900904;29;20147;-45
2023/04/16 12:59:55;;;;;;;4.70;0.80;;;;;;;;;;4893516;29;20760;-45
2023/04/16 13:02:23;;;;;;;3.78;0.75;;;;;;;;;;4911446;29;20055;-45
2023/04/16 13:04:51;;;;;;;3.78;0.55;;;;;;;;;;4884760;29;20415;-46
2023/04/16 13:07:20;;;;;;;5.03;1.25;;;;;;;;;;4898453;29;20099;-47
2023/04/16 13:09:49;;;;;;;7.87;2.30;;;;;;;;;;4899843;29;20114;-46
2023/04/16 13:12:17;;;;;;;5.35;1.23;;;;;;;;;;4898568;29;20071;-46
2023/04/16 13:14:46;;;;;;;3.67;0.95;;;;;;;;;;4881852;29;20107;-46
2023/04/16 13:17:15;;;;;;;4.72;1.08;;;;;;;;;;4907620;29;20512;-44
2023/04/16 13:19:42;;;;;;;5.03;0.90;;;;;;;;;;4900648;29;20552;-45
2023/04/16 13:22:10;;;;;;;6.70;1.13;;;;;;;;;;4906170;29;20158;-45
2023/04/16 13:24:38;;;;;;;4.13;1.20;;;;;;;;;;4896654;29;20040;-44
2023/04/16 13:27:07;;;;;;;4.38;0.70;;;;;;;;;;4913046;29;20110;-45
2023/04/16 13:29:36;;;;;;;3.15;0.50;;;;;;;;;;4885645;29;20453;-44
2023/04/16 13:32:04;;;;;;;2.10;0.43;;;;;;;;;;4909632;29;20040;-45
2023/04/16 13:34:32;;;;;;;2.70;0.60;;;;;;;;;;4886280;29;20056;-45
2023/04/16 13:37:00;;;;;;;5.28;0.60;;;;;;;;;;4896605;29;20072;-45
2023/04/16 13:39:28;;;;;;;4.72;0.90;;;;;;;;;;4897211;29;20036;-46
2023/04/16 13:41:55;;;;;;;1.98;0.40;;;;;;;;;;4911295;29;20044;-45
2023/04/16 13:44:24;;;;;;;3.28;0.60;;;;;;;;;;4890653;29;20123;-45
2023/04/16 13:46:52;;;;;;;4.73;0.40;;;;;;;;;;4879416;29;20040;-45
2023/04/16 13:49:21;;;;;;;2.47;0.55;;;;;;;;;;4896304;29;20047;-45
2023/04/16 13:51:50;;;;;;;3.75;0.50;;;;;;;;;;4886759;29;20040;-46
2023/04/16 13:54:22;;;;;;;2.67;0.50;;;;;;;;;;4904871;29;20135;-46
2023/04/16 13:56:51;;;;;;;1.90;0.35;;;;;;;;;;4903905;29;20046;-45
2023/04/16 13:59:19;;;;;;;2.93;0.57;;;;;;;;;;4895177;29;20051;-46
2023/04/16 14:01:48;;;;;;;3.95;0.60;;;;;;;;;;4849398;29;21262;-45
2023/04/16 14:04:16;;;;;;;3.00;0.40;;;;;;;;;;4895712;29;20807;-48
2023/04/16 14:06:44;;;;;;;2.63;0.57;;;;;;;;;;4893522;29;20134;-45
2023/04/16 14:09:11;;;;;;;5.28;0.60;;;;;;;;;;4899276;29;20143;-50
2023/04/16 14:11:39;;;;;;;3.20;0.40;;;;;;;;;;4887468;29;21086;-46
2023/04/16 14:14:07;;;;;;;3.30;0.63;;;;;;;;;;4914611;29;20453;-46
2023/04/16 14:16:35;;;;;;;4.20;0.60;;;;;;;;;;4874673;29;20111;-44
2023/04/16 14:19:04;;;;;;;3.80;0.55;;;;;;;;;;4876755;29;20056;-46
2023/04/16 14:21:32;;;;;;;2.95;0.52;;;;;;;;;;4897635;29;20036;-45
2023/04/16 14:24:00;;;;;;;2.67;0.50;;;;;;;;;;4895978;29;20055;-44
2023/04/16 14:26:28;;;;;;;3.22;0.52;;;;;;;;;;4880829;29;20051;-47
2023/04/16 14:28:55;;;;;;;3.22;0.47;;;;;;;;;;4893152;29;20040;-46
2023/04/16 14:31:23;;;;;;;2.60;0.60;;;;;;;;;;4896309;29;20139;-45
2023/04/16 14:33:51;;;;;;;3.38;0.70;;;;;;;;;;4910913;29;20130;-44
2023/04/16 14:36:20;;;;;;;2.63;0.70;;;;;;;;;;4889959;29;20040;-50
2023/04/16 14:38:48;;;;;;;3.38;0.68;;;;;;;;;;4906591;29;20098;-46
2023/04/16 14:41:16;;;;;;;4.60;0.60;;;;;;;;;;4872049;29;20044;-45
2023/04/16 14:43:44;;;;;;;3.42;0.40;;;;;;;;;;4882641;29;20123;-45
2023/04/16 14:46:12;;;;;;;2.63;0.70;;;;;;;;;;4874890;29;20060;-45
2023/04/16 14:48:39;;;;;;;3.00;0.60;;;;;;;;;;4904363;29;20044;-45
2023/04/16 14:51:07;;;;;;;2.22;0.50;;;;;;;;;;4890160;29;20095;-45
2023/04/16 14:53:40;;;;;;;4.40;0.40;;;;;;;;;;4900928;29;20132;-46